Time;durP1;ratioP1;P1;durP2;ratioP2;P2;SDS_P1;SDS_P2;PMS_P1;PMS_P2;Temp;Humidity;BMP_temperature;BMP_pressure;BME280_temperature;BME280_humidity;BME280_pressure;Samples;Min_cycle;Max_cycle;Signal;HPM_P1;HPM_P2
2022/08/21 17:38:30;;;;;;;6.00;3.40;;;;;;;24.39;65.19;99655.70;126162;1310;636089;-71
2022/08/21 17:41:35;;;;;;;3.70;3.40;;;;;;;24.32;65.56;99662.77;129349;1281;108896;-70
2022/08/21 17:44:43;;;;;;;4.80;3.70;;;;;;;24.32;65.77;99664.02;129283;1281;107662;-74
2022/08/21 17:47:48;;;;;;;4.80;3.70;;;;;;;24.33;65.86;99660.91;130269;1269;108707;-70
2022/08/21 17:50:53;;;;;;;4.20;3.60;;;;;;;24.32;65.98;99659.48;129039;1269;1515053;-70
2022/08/21 17:53:59;;;;;;;6.20;4.20;;;;;;;24.32;66.33;99662.33;130189;1268;108959;-71
2022/08/21 17:57:06;;;;;;;5.80;4.00;;;;;;;24.31;66.53;99661.94;130347;1268;108686;-74
2022/08/21 18:00:16;;;;;;;4.30;3.90;;;;;;;24.26;66.70;99659.39;130424;1268;109282;-71
2022/08/21 18:03:23;;;;;;;5.40;4.20;;;;;;;24.19;66.74;99659.98;130400;1268;107073;-72
2022/08/21 18:06:29;;;;;;;5.10;4.60;;;;;;;24.14;66.95;99658.78;130542;1268;108663;-73
2022/08/21 18:09:34;;;;;;;4.50;4.10;;;;;;;24.12;67.16;99660.40;130345;1268;108659;-71
2022/08/21 18:12:43;;;;;;;5.10;4.60;;;;;;;24.10;67.23;99665.66;130323;1268;108870;-71
2022/08/21 18:15:52;;;;;;;4.40;4.00;;;;;;;24.07;67.64;99666.29;130118;1268;108973;-70
2022/08/21 18:18:58;;;;;;;5.00;4.50;;;;;;;24.04;67.79;99667.28;130527;1268;108888;-71
2022/08/21 18:22:07;;;;;;;5.40;4.00;;;;;;;23.99;68.18;99668.00;130532;1268;108798;-71
2022/08/21 18:25:13;;;;;;;4.30;3.80;;;;;;;23.96;68.35;99670.91;130243;1268;110111;-70
2022/08/21 18:28:19;;;;;;;4.60;4.10;;;;;;;23.94;68.62;99671.05;130231;1268;108758;-70
2022/08/21 18:31:25;;;;;;;5.60;4.30;;;;;;;23.93;68.90;99674.90;130154;1271;108827;-69
2022/08/21 18:34:38;;;;;;;4.80;4.40;;;;;;;23.94;68.96;99679.38;130194;1271;108014;-70
2022/08/21 18:37:44;;;;;;;5.20;4.70;;;;;;;23.97;69.27;99684.10;130118;1271;108444;-69
2022/08/21 18:40:52;;;;;;;5.60;5.00;;;;;;;23.97;69.44;99695.98;130160;1271;108795;-70
2022/08/21 18:43:58;;;;;;;7.70;4.80;;;;;;;23.67;70.04;99701.23;130070;1271;107583;-70
2022/08/21 18:47:06;;;;;;;5.20;4.70;;;;;;;23.39;70.20;99704.77;130067;1271;108711;-71
2022/08/21 18:50:15;;;;;;;5.40;4.70;;;;;;;23.28;70.21;99707.61;130280;1270;107732;-70
2022/08/21 18:53:20;;;;;;;4.90;4.40;;;;;;;23.32;70.17;99705.70;130560;1271;108744;-70
2022/08/21 18:56:26;;;;;;;5.70;4.90;;;;;;;23.43;70.18;99704.88;131395;1269;108746;-71
2022/08/21 18:59:32;;;;;;;5.60;5.10;;;;;;;23.54;70.15;99711.61;130084;1271;108867;-71
2022/08/21 19:02:38;;;;;;;6.60;6.00;;;;;;;23.60;70.15;99707.92;130178;1268;110387;-71
2022/08/21 19:05:44;;;;;;;8.10;6.30;;;;;;;23.59;71.15;99712.54;130221;1268;108862;-72
2022/08/21 19:08:50;;;;;;;9.90;6.50;;;;;;;23.46;72.11;99715.81;130256;1271;108329;-71
2022/08/21 19:11:56;;;;;;;7.90;6.30;;;;;;;23.34;72.57;99713.07;130259;1271;108717;-70
2022/08/21 19:15:02;;;;;;;8.50;7.00;;;;;;;23.24;72.78;99716.31;130160;1268;108896;-70
2022/08/21 19:18:11;;;;;;;11.20;7.30;;;;;;;23.16;73.21;99716.70;130093;1268;108804;-69
2022/08/21 19:21:16;;;;;;;9.70;8.20;;;;;;;23.09;73.55;99722.64;130059;1268;108502;-69
2022/08/21 19:24:22;;;;;;;9.20;6.60;;;;;;;23.03;73.60;99723.38;129863;1268;108749;-71
2022/08/21 19:27:28;;;;;;;7.50;6.60;;;;;;;23.00;73.76;99718.41;130056;1268;109623;-69
2022/08/21 19:30:34;;;;;;;7.40;6.70;;;;;;;22.98;73.74;99719.71;130145;1268;108935;-69
2022/08/21 19:33:43;;;;;;;8.40;7.60;;;;;;;22.99;74.50;99729.02;130170;1268;108679;-70
2022/08/21 19:36:49;;;;;;;8.00;7.20;;;;;;;22.96;74.08;99726.42;130163;1268;108691;-71
2022/08/21 19:39:55;;;;;;;8.20;6.80;;;;;;;22.90;74.63;99727.69;130307;1268;108642;-68
2022/08/21 19:43:00;;;;;;;8.10;6.40;;;;;;;22.83;74.44;99721.80;130153;1268;108858;-73
2022/08/21 19:46:06;;;;;;;7.30;6.50;;;;;;;22.88;74.56;99724.75;130145;1268;109617;-69
2022/08/21 19:49:15;;;;;;;11.30;7.40;;;;;;;22.94;74.99;99726.13;130222;1268;108627;-69
2022/08/21 19:52:21;;;;;;;7.50;6.80;;;;;;;22.83;75.10;99728.49;130243;1268;108767;-69
2022/08/21 19:55:28;;;;;;;7.30;6.60;;;;;;;22.80;74.97;99726.73;130234;1268;108711;-70
2022/08/21 19:58:38;;;;;;;6.90;5.80;;;;;;;22.81;74.94;99730.38;130114;1268;108748;-69
2022/08/21 20:01:43;;;;;;;7.40;6.10;;;;;;;22.80;75.12;99733.05;130149;1268;106993;-69
2022/08/21 20:04:49;;;;;;;7.60;6.10;;;;;;;22.75;75.18;99732.65;130155;1268;108754;-70
2022/08/21 20:07:54;;;;;;;7.10;6.40;;;;;;;22.79;75.18;99734.08;130205;1268;108781;-69
2022/08/21 20:11:01;;;;;;;7.20;6.50;;;;;;;22.86;75.10;99734.58;130165;1268;108789;-69
2022/08/21 20:14:10;;;;;;;7.10;6.50;;;;;;;22.91;75.21;99731.82;130229;1268;108831;-69
2022/08/21 20:17:18;;;;;;;7.10;6.40;;;;;;;22.93;75.30;99732.03;130256;1268;108582;-69
2022/08/21 20:20:24;;;;;;;9.50;6.60;;;;;;;22.85;75.43;99726.52;130171;1268;108593;-69
2022/08/21 20:23:30;;;;;;;7.30;6.60;;;;;;;22.78;75.56;99728.03;130208;1268;107662;-70
2022/08/21 20:26:36;;;;;;;7.20;6.50;;;;;;;22.78;75.68;99728.79;130274;1268;108561;-71
2022/08/21 20:29:42;;;;;;;7.90;7.10;;;;;;;22.77;75.57;99731.27;130293;1268;108535;-70
2022/08/21 20:32:47;;;;;;;8.10;7.30;;;;;;;22.76;75.58;99728.92;130191;1268;107543;-70
2022/08/21 20:35:52;;;;;;;6.70;6.00;;;;;;;22.70;75.88;99722.95;130172;1268;108781;-69
2022/08/21 20:38:58;;;;;;;7.90;5.90;;;;;;;22.66;75.83;99721.80;130194;1268;109817;-69
2022/08/21 20:42:04;;;;;;;7.70;6.90;;;;;;;22.60;75.89;99724.06;130141;1268;108749;-70
2022/08/21 20:45:12;;;;;;;7.60;6.80;;;;;;;22.53;75.93;99720.27;130316;1268;107594;-68
2022/08/21 20:48:24;;;;;;;7.20;6.60;;;;;;;22.39;76.09;99715.60;130200;1268;108282;-69
2022/08/21 20:51:34;;;;;;;7.30;6.60;;;;;;;22.34;76.23;99719.17;130265;1268;108540;-69
2022/08/21 20:54:48;;;;;;;6.80;6.10;;;;;;;22.30;76.46;99716.80;130262;1268;108709;-70
2022/08/21 20:58:01;;;;;;;7.80;5.80;;;;;;;22.27;76.48;99719.41;130199;1268;108523;-70
2022/08/21 21:01:09;;;;;;;7.60;6.60;;;;;;;22.23;76.67;99720.58;130250;1268;108524;-71
2022/08/21 21:04:25;;;;;;;8.70;7.20;;;;;;;22.24;76.83;99724.06;130213;1268;108809;-70
2022/08/21 21:07:37;;;;;;;7.80;7.00;;;;;;;22.27;76.81;99723.23;130148;1268;109632;-70
2022/08/21 21:10:48;;;;;;;8.50;7.70;;;;;;;22.26;76.79;99724.83;130159;1268;108676;-70
2022/08/21 21:13:57;;;;;;;7.60;6.90;;;;;;;22.26;77.14;99718.69;130215;1268;108816;-69
2022/08/21 21:17:06;;;;;;;7.70;6.90;;;;;;;22.27;77.15;99713.66;130189;1268;110349;-70
2022/08/21 21:20:16;;;;;;;7.20;6.50;;;;;;;22.25;77.19;99714.10;130234;1268;108767;-69
2022/08/21 21:23:29;;;;;;;8.40;7.60;;;;;;;22.19;77.36;99710.16;130185;1268;109679;-69
2022/08/21 21:26:38;;;;;;;8.00;7.20;;;;;;;22.20;77.36;99712.23;130509;1268;108016;-70
2022/08/21 21:29:48;;;;;;;7.40;6.70;;;;;;;22.14;77.47;99712.89;130310;1268;108238;-70
2022/08/21 21:32:54;;;;;;;6.60;6.00;;;;;;;22.10;77.59;99717.09;130076;1268;108415;-69
2022/08/21 21:36:07;;;;;;;7.20;6.40;;;;;;;22.09;77.58;99713.64;130242;1268;109640;-69
2022/08/21 21:39:22;;;;;;;7.80;7.00;;;;;;;22.07;77.51;99718.45;130173;1268;108824;-69
2022/08/21 21:42:41;;;;;;;8.40;7.30;;;;;;;22.05;77.51;99726.08;130300;1268;108812;-68
2022/08/21 21:46:04;;;;;;;7.70;6.90;;;;;;;21.96;77.78;99727.16;130217;1268;108573;-69
2022/08/21 21:49:31;;;;;;;8.80;6.80;;;;;;;21.90;77.87;99731.21;130076;1268;108759;-71
2022/08/21 21:52:53;;;;;;;7.50;6.40;;;;;;;21.87;77.93;99732.27;130213;1268;108589;-71
2022/08/21 21:56:02;;;;;;;;;;;;;;;21.87;77.93;99729.56;130141;1267;108697;-71
2022/08/21 21:59:33;;;;;;;7.90;7.10;;;;;;;21.88;78.04;99729.50;130211;1268;108959;-69
2022/08/21 22:02:48;;;;;;;8.20;7.30;;;;;;;21.78;78.17;99729.17;130184;1268;108702;-69
2022/08/21 22:06:00;;;;;;;8.00;7.30;;;;;;;21.72;78.24;99729.70;130259;1268;107149;-69
2022/08/21 22:09:17;;;;;;;7.40;6.70;;;;;;;21.67;78.30;99733.06;130231;1268;108833;-69
2022/08/21 22:12:33;;;;;;;6.70;6.00;;;;;;;21.65;78.28;99735.85;130270;1268;108558;-69
2022/08/21 22:15:39;;;;;;;7.00;6.40;;;;;;;21.62;78.10;99738.72;130239;1268;108605;-68
2022/08/21 22:18:50;;;;;;;8.00;7.30;;;;;;;21.59;78.28;99737.63;130221;1267;108868;-68
2022/08/21 22:22:02;;;;;;;8.20;7.50;;;;;;;21.66;78.27;99736.52;130157;1268;108768;-69
2022/08/21 22:25:17;;;;;;;9.00;8.10;;;;;;;21.65;78.24;99737.23;130069;1268;107387;-70
2022/08/21 22:28:25;;;;;;;7.50;6.70;;;;;;;21.63;78.20;99732.22;130092;1268;108963;-70
2022/08/21 22:31:33;;;;;;;6.70;6.10;;;;;;;21.60;78.30;99732.75;130202;1268;108711;-71
2022/08/21 22:34:39;;;;;;;8.00;6.60;;;;;;;21.58;78.28;99735.16;130215;1268;108787;-70
2022/08/21 22:37:47;;;;;;;8.70;7.80;;;;;;;21.52;78.38;99732.25;130188;1268;108782;-69
2022/08/21 22:40:53;;;;;;;7.70;7.00;;;;;;;21.48;78.48;99733.40;130265;1268;108674;-69
2022/08/21 22:44:01;;;;;;;8.60;7.70;;;;;;;21.44;78.50;99736.20;130303;1268;108709;-69
2022/08/21 22:47:09;;;;;;;7.60;6.90;;;;;;;21.37;78.52;99736.93;130268;1268;108671;-69
2022/08/21 22:50:31;;;;;;;9.40;6.60;;;;;;;21.30;78.68;99737.17;130196;1268;107495;-69
2022/08/21 22:53:40;;;;;;;7.30;6.70;;;;;;;21.32;78.77;99736.55;130187;1267;107201;-70
2022/08/21 22:56:55;;;;;;;9.00;6.90;;;;;;;21.32;78.64;99734.73;130213;1268;108629;-70
2022/08/21 23:00:10;;;;;;;8.10;7.40;;;;;;;21.30;78.76;99736.61;130144;1268;108926;-69
2022/08/21 23:03:24;;;;;;;9.90;7.10;;;;;;;21.23;78.75;99734.84;130220;1268;108891;-70
2022/08/21 23:06:33;;;;;;;7.00;6.30;;;;;;;21.12;78.87;99729.52;130129;1268;109182;-70
2022/08/21 23:09:48;;;;;;;6.90;6.20;;;;;;;21.04;79.03;99731.08;130313;1268;108692;-69
2022/08/21 23:13:00;;;;;;;7.50;6.70;;;;;;;21.01;79.15;99737.19;130274;1268;107408;-70
2022/08/21 23:16:17;;;;;;;7.60;6.80;;;;;;;20.98;79.21;99736.41;130210;1268;108652;-70
2022/08/21 23:19:34;;;;;;;8.10;7.30;;;;;;;20.95;79.25;99730.70;130304;1268;107643;-69
2022/08/21 23:22:51;;;;;;;8.20;7.40;;;;;;;20.91;79.14;99731.38;130243;1268;108760;-69
2022/08/21 23:26:22;;;;;;;7.00;6.30;;;;;;;20.82;79.09;99732.07;130222;1268;109601;-69
2022/08/21 23:29:44;;;;;;;7.10;5.80;;;;;;;20.73;79.24;99733.05;130031;1268;108623;-70
2022/08/21 23:33:11;;;;;;;6.70;6.00;;;;;;;20.71;79.16;99731.58;130182;1268;108840;-69
2022/08/21 23:40:03;;;;;;;8.10;7.20;;;;;;;20.66;79.09;99735.33;130171;1268;109112;-70
2022/08/21 23:43:22;;;;;;;8.00;7.20;;;;;;;20.57;79.09;99732.71;130155;1268;108695;-69
2022/08/21 23:46:44;;;;;;;6.50;5.90;;;;;;;20.50;79.31;99739.25;130228;1268;108658;-69
2022/08/21 23:49:58;;;;;;;6.30;5.70;;;;;;;20.45;79.23;99740.40;130176;1268;110567;-70
2022/08/21 23:53:14;;;;;;;7.00;6.20;;;;;;;20.43;79.19;99739.05;130242;1268;108754;-69
2022/08/21 23:56:30;;;;;;;8.20;6.60;;;;;;;20.42;79.05;99737.73;130184;1268;108699;-72
2022/08/21 23:59:48;;;;;;;6.60;6.00;;;;;;;20.35;78.85;99739.41;130124;1268;108827;-69
